Time;durP1;ratioP1;P1;durP2;ratioP2;P2;SDS_P1;SDS_P2;PMS_P1;PMS_P2;Temp;Humidity;BMP_temperature;BMP_pressure;BME280_temperature;BME280_humidity;BME280_pressure;Samples;Min_cycle;Max_cycle;Signal;HPM_P1;HPM_P2
2023/03/17 00:01:20;;;;;;;13.55;6.65;;;;;;;;;;5015103;28;20104;-61
2023/03/17 00:03:49;;;;;;;14.60;7.03;;;;;;;;;;5015074;28;20129;-62
2023/03/17 00:06:17;;;;;;;11.05;6.55;;;;;;;;;;5014472;28;20046;-62
2023/03/17 00:08:45;;;;;;;11.82;7.20;;;;;;;;;;5014449;28;20049;-61
2023/03/17 00:11:14;;;;;;;10.20;6.18;;;;;;;;;;5014667;28;20140;-60
2023/03/17 00:13:42;;;;;;;11.65;6.80;;;;;;;;;;5014929;28;20050;-60
2023/03/17 00:16:15;;;;;;;11.45;6.82;;;;;;;;;;5014474;28;20060;-62
2023/03/17 00:18:42;;;;;;;10.88;6.25;;;;;;;;;;5014302;28;20127;-63
2023/03/17 00:21:13;;;;;;;13.65;7.60;;;;;;;;;;5014026;28;20065;-61
2023/03/17 00:23:40;;;;;;;11.68;7.35;;;;;;;;;;5014348;28;20144;-61
2023/03/17 00:26:07;;;;;;;11.93;6.07;;;;;;;;;;5014087;28;20046;-62
2023/03/17 00:28:36;;;;;;;9.82;6.50;;;;;;;;;;5014340;28;20458;-61
2023/03/17 00:31:12;;;;;;;12.13;6.30;;;;;;;;;;5014366;28;20058;-59
2023/03/17 00:33:39;;;;;;;11.38;6.78;;;;;;;;;;5014093;28;20053;-62
2023/03/17 00:36:10;;;;;;;12.40;6.28;;;;;;;;;;5013911;28;20058;-62
2023/03/17 00:38:37;;;;;;;10.38;6.45;;;;;;;;;;5014137;28;20384;-62
2023/03/17 00:41:05;;;;;;;11.93;6.75;;;;;;;;;;5013890;28;20400;-60
2023/03/17 00:43:31;;;;;;;11.68;6.80;;;;;;;;;;5013895;28;20116;-62
2023/03/17 00:46:00;;;;;;;12.77;6.95;;;;;;;;;;5013306;28;20050;-61
2023/03/17 00:48:28;;;;;;;11.40;6.30;;;;;;;;;;5013600;28;20046;-62
2023/03/17 00:50:55;;;;;;;11.95;6.38;;;;;;;;;;5014066;28;20683;-62
2023/03/17 00:53:22;;;;;;;11.82;6.57;;;;;;;;;;5013566;28;20403;-62
2023/03/17 00:55:49;;;;;;;9.88;6.38;;;;;;;;;;5013546;28;20054;-62
2023/03/17 00:58:21;;;;;;;12.32;6.13;;;;;;;;;;5013409;28;20053;-62
2023/03/17 01:00:48;;;;;;;10.70;6.57;;;;;;;;;;5013208;28;20058;-61
2023/03/17 01:03:16;;;;;;;9.48;6.20;;;;;;;;;;5013701;28;20119;-61
2023/03/17 01:05:43;;;;;;;11.20;6.30;;;;;;;;;;5013335;28;20050;-61
2023/03/17 01:08:10;;;;;;;11.32;6.28;;;;;;;;;;5012979;28;20057;-61
2023/03/17 01:10:37;;;;;;;9.57;6.43;;;;;;;;;;5013960;28;20112;-62
2023/03/17 01:13:05;;;;;;;10.60;5.82;;;;;;;;;;5013151;28;20108;-60
2023/03/17 01:15:34;;;;;;;10.38;5.88;;;;;;;;;;5012849;28;20050;-60
2023/03/17 01:18:01;;;;;;;10.98;6.55;;;;;;;;;;5013431;28;20053;-62
2023/03/17 01:20:32;;;;;;;11.10;6.50;;;;;;;;;;5011765;28;20511;-62
2023/03/17 01:22:59;;;;;;;9.52;6.35;;;;;;;;;;5013016;28;20046;-61
2023/03/17 01:25:26;;;;;;;10.05;6.03;;;;;;;;;;5012611;28;20127;-61
2023/03/17 01:27:55;;;;;;;9.30;5.88;;;;;;;;;;5013436;28;20115;-60
2023/03/17 01:30:26;;;;;;;10.13;6.10;;;;;;;;;;5013309;28;20086;-61
2023/03/17 01:32:53;;;;;;;9.70;5.63;;;;;;;;;;5013130;28;20050;-58
2023/03/17 01:35:20;;;;;;;10.52;6.65;;;;;;;;;;5012982;28;20089;-60
2023/03/17 01:37:49;;;;;;;13.27;6.85;;;;;;;;;;5013349;28;20049;-61
2023/03/17 01:40:18;;;;;;;10.85;6.72;;;;;;;;;;5012893;28;20089;-62
2023/03/17 01:42:51;;;;;;;12.57;6.85;;;;;;;;;;5013155;28;20514;-61
2023/03/17 01:45:55;;;;;;;10.55;6.75;;;;;;;;;;5013084;28;20049;-61
2023/03/17 01:48:22;;;;;;;12.93;6.32;;;;;;;;;;5012685;28;20104;-61
2023/03/17 01:50:50;;;;;;;10.35;5.90;;;;;;;;;;5012663;28;20111;-62
2023/03/17 01:53:21;;;;;;;12.05;6.82;;;;;;;;;;5012679;28;20045;-62
2023/03/17 01:55:51;;;;;;;12.18;6.38;;;;;;;;;;5012415;28;20621;-61
2023/03/17 01:58:21;;;;;;;10.70;6.50;;;;;;;;;;5012409;28;20246;-61
2023/03/17 02:00:49;;;;;;;11.50;6.13;;;;;;;;;;5012178;28;20049;-61
2023/03/17 02:03:16;;;;;;;11.07;5.65;;;;;;;;;;5012297;28;20049;-61
2023/03/17 02:05:44;;;;;;;13.68;6.57;;;;;;;;;;5011903;28;20515;-60
2023/03/17 02:08:12;;;;;;;12.88;7.53;;;;;;;;;;4997173;28;20050;-60
2023/03/17 02:10:41;;;;;;;10.75;6.22;;;;;;;;;;5011710;28;20046;-61
2023/03/17 02:13:10;;;;;;;9.57;6.25;;;;;;;;;;5012508;28;20050;-62
2023/03/17 02:15:39;;;;;;;11.43;6.85;;;;;;;;;;5012127;28;20049;-62
2023/03/17 02:18:06;;;;;;;11.25;5.95;;;;;;;;;;5012360;28;20582;-61
2023/03/17 02:21:21;;;;;;;13.05;7.40;;;;;;;;;;5012315;28;20049;-62
2023/03/17 02:23:50;;;;;;;10.55;5.88;;;;;;;;;;4951688;29;20054;-62
2023/03/17 02:26:19;;;;;;;10.63;6.80;;;;;;;;;;4951527;29;20055;-62
2023/03/17 02:28:47;;;;;;;9.23;5.90;;;;;;;;;;4986164;28;20054;-62
2023/03/17 02:31:14;;;;;;;13.38;7.53;;;;;;;;;;5012403;28;20096;-61
2023/03/17 02:33:41;;;;;;;11.68;5.43;;;;;;;;;;5012335;28;20407;-62
2023/03/17 02:36:09;;;;;;;13.73;6.57;;;;;;;;;;5011665;28;20049;-62
2023/03/17 02:38:36;;;;;;;11.55;6.03;;;;;;;;;;5012050;28;20050;-62
2023/03/17 02:41:06;;;;;;;9.50;5.80;;;;;;;;;;5012319;28;20103;-62
2023/03/17 02:43:33;;;;;;;10.52;6.00;;;;;;;;;;5012243;28;20046;-61
2023/03/17 02:46:00;;;;;;;10.65;6.20;;;;;;;;;;5011850;28;20054;-63
2023/03/17 02:48:27;;;;;;;9.63;5.90;;;;;;;;;;5011742;28;20052;-63
2023/03/17 02:50:54;;;;;;;12.40;6.25;;;;;;;;;;5011624;28;20073;-60
2023/03/17 02:53:20;;;;;;;10.45;6.53;;;;;;;;;;5011859;28;20491;-62
2023/03/17 02:55:47;;;;;;;8.68;5.60;;;;;;;;;;5011564;28;20056;-62
2023/03/17 02:58:16;;;;;;;11.45;6.10;;;;;;;;;;5012086;28;20104;-61
2023/03/17 03:00:43;;;;;;;11.38;6.70;;;;;;;;;;5012054;28;20058;-61
2023/03/17 03:03:10;;;;;;;9.35;5.70;;;;;;;;;;5012001;28;20491;-60
2023/03/17 03:05:36;;;;;;;9.13;5.47;;;;;;;;;;5011930;28;20054;-61
2023/03/17 03:08:03;;;;;;;10.38;6.30;;;;;;;;;;4992212;28;20057;-62
2023/03/17 03:10:31;;;;;;;10.90;6.50;;;;;;;;;;5008440;28;20054;-62
2023/03/17 03:12:58;;;;;;;11.02;6.53;;;;;;;;;;5011921;28;20061;-62
2023/03/17 03:15:26;;;;;;;11.68;7.18;;;;;;;;;;5011851;28;20049;-61
2023/03/17 03:17:52;;;;;;;11.07;6.00;;;;;;;;;;5011469;28;20045;-62
2023/03/17 03:20:20;;;;;;;9.73;6.18;;;;;;;;;;5011946;28;20061;-59
2023/03/17 03:22:47;;;;;;;10.80;6.45;;;;;;;;;;5013606;28;20104;-62
2023/03/17 03:25:13;;;;;;;9.95;5.95;;;;;;;;;;5015539;28;20491;-61
2023/03/17 03:27:40;;;;;;;10.27;6.18;;;;;;;;;;5015629;28;20108;-62
2023/03/17 03:30:09;;;;;;;9.48;5.88;;;;;;;;;;5015427;28;20054;-62
2023/03/17 03:32:37;;;;;;;11.50;5.95;;;;;;;;;;5015702;28;20058;-62
2023/03/17 03:35:04;;;;;;;8.95;5.82;;;;;;;;;;4996054;28;20046;-62
2023/03/17 03:37:31;;;;;;;9.38;5.85;;;;;;;;;;4999760;28;20042;-63
2023/03/17 03:39:59;;;;;;;9.15;5.55;;;;;;;;;;5015088;28;20054;-62
2023/03/17 03:42:25;;;;;;;9.80;5.55;;;;;;;;;;5015440;28;20052;-62
2023/03/17 03:44:52;;;;;;;10.38;6.03;;;;;;;;;;5015443;28;20442;-63
2023/03/17 03:47:19;;;;;;;9.32;6.03;;;;;;;;;;5015281;28;20050;-60
2023/03/17 03:49:47;;;;;;;11.00;6.72;;;;;;;;;;5014952;28;20065;-61
2023/03/17 03:52:14;;;;;;;9.88;6.22;;;;;;;;;;5015101;28;20064;-61
2023/03/17 03:54:41;;;;;;;10.15;6.07;;;;;;;;;;5015155;28;20062;-61
2023/03/17 03:57:08;;;;;;;10.40;6.10;;;;;;;;;;5015232;28;20046;-62
2023/03/17 03:59:35;;;;;;;8.82;5.70;;;;;;;;;;5014979;28;20042;-61
2023/03/17 04:02:02;;;;;;;10.52;6.03;;;;;;;;;;5015475;28;20499;-62
2023/03/17 04:04:28;;;;;;;10.48;6.32;;;;;;;;;;5015122;28;20050;-60
2023/03/17 04:06:57;;;;;;;9.95;5.40;;;;;;;;;;5014915;28;20058;-61
2023/03/17 04:09:23;;;;;;;12.32;6.55;;;;;;;;;;5014993;28;20050;-62
2023/03/17 04:11:50;;;;;;;8.00;5.63;;;;;;;;;;5014991;28;20411;-61
2023/03/17 04:14:18;;;;;;;9.30;5.72;;;;;;;;;;5014854;28;20046;-61
2023/03/17 04:16:45;;;;;;;12.23;6.68;;;;;;;;;;5014203;28;20140;-61
2023/03/17 04:19:11;;;;;;;11.60;6.72;;;;;;;;;;5014643;28;20045;-57
2023/03/17 04:21:38;;;;;;;9.70;6.50;;;;;;;;;;5014897;28;20062;-58
2023/03/17 04:24:08;;;;;;;9.38;5.45;;;;;;;;;;5014494;28;20061;-59
2023/03/17 04:26:35;;;;;;;12.30;6.30;;;;;;;;;;5014550;28;20519;-57
2023/03/17 04:29:01;;;;;;;10.48;6.13;;;;;;;;;;5014698;28;20510;-59
2023/03/17 04:31:28;;;;;;;10.10;6.28;;;;;;;;;;5014404;28;20050;-58
2023/03/17 04:33:55;;;;;;;8.48;5.57;;;;;;;;;;5013686;28;20510;-58
2023/03/17 04:36:23;;;;;;;10.57;6.00;;;;;;;;;;5000797;28;20129;-59
2023/03/17 04:38:50;;;;;;;11.77;6.10;;;;;;;;;;5010759;28;20088;-60
2023/03/17 04:41:20;;;;;;;9.30;5.55;;;;;;;;;;5014035;28;20092;-59
2023/03/17 04:43:47;;;;;;;10.00;6.43;;;;;;;;;;5014087;28;20133;-59
2023/03/17 04:46:15;;;;;;;10.23;5.50;;;;;;;;;;5013993;28;20054;-59
2023/03/17 04:48:41;;;;;;;8.35;5.40;;;;;;;;;;5013914;28;20053;-56
2023/03/17 04:51:08;;;;;;;10.13;5.35;;;;;;;;;;5013872;28;20049;-58
2023/03/17 04:53:35;;;;;;;8.38;5.05;;;;;;;;;;5013974;28;20060;-59
2023/03/17 04:56:02;;;;;;;10.60;5.70;;;;;;;;;;5013557;28;20104;-60
2023/03/17 04:58:30;;;;;;;9.35;5.40;;;;;;;;;;5005459;28;20049;-60
2023/03/17 05:00:57;;;;;;;9.18;6.63;;;;;;;;;;5013881;28;20060;-56
2023/03/17 05:03:24;;;;;;;11.68;5.53;;;;;;;;;;5014001;28;20100;-60
2023/03/17 05:05:51;;;;;;;8.68;4.97;;;;;;;;;;5013711;28;20417;-61
2023/03/17 05:08:18;;;;;;;9.10;5.20;;;;;;;;;;5013316;28;20054;-61
2023/03/17 05:10:45;;;;;;;10.23;5.47;;;;;;;;;;5013707;28;20426;-60
2023/03/17 05:13:12;;;;;;;12.93;5.10;;;;;;;;;;5013078;28;20057;-59
2023/03/17 05:15:41;;;;;;;9.27;4.95;;;;;;;;;;5013380;28;20101;-58
2023/03/17 05:18:08;;;;;;;9.65;5.35;;;;;;;;;;5013309;28;20153;-60
2023/03/17 05:20:35;;;;;;;8.48;4.90;;;;;;;;;;5013580;28;20050;-60
2023/03/17 05:23:01;;;;;;;13.40;6.13;;;;;;;;;;5012915;28;20050;-60
2023/03/17 05:25:28;;;;;;;10.73;5.72;;;;;;;;;;5013016;28;20053;-58
2023/03/17 05:27:55;;;;;;;9.60;5.30;;;;;;;;;;5013250;28;20480;-58
2023/03/17 05:30:22;;;;;;;9.27;5.82;;;;;;;;;;5013660;28;20442;-57
2023/03/17 05:32:50;;;;;;;11.13;6.47;;;;;;;;;;5013076;28;20100;-57
2023/03/17 05:35:17;;;;;;;10.15;5.60;;;;;;;;;;5013085;28;20428;-60
2023/03/17 05:37:45;;;;;;;10.77;6.05;;;;;;;;;;5013014;28;20507;-60
2023/03/17 05:40:13;;;;;;;13.80;6.85;;;;;;;;;;5013465;28;20052;-59
2023/03/17 05:42:40;;;;;;;10.25;5.63;;;;;;;;;;5012928;28;20614;-60
2023/03/17 05:45:08;;;;;;;9.50;5.72;;;;;;;;;;5040102;22;20052;-80
2023/03/17 05:47:36;;;;;;;12.45;5.95;;;;;;;;;;5049545;28;20049;-80
2023/03/17 05:50:05;;;;;;;10.75;6.15;;;;;;;;;;5059328;28;20104;-81
2023/03/17 05:52:32;;;;;;;14.23;6.05;;;;;;;;;;5047401;28;20051;-80
2023/03/17 05:54:58;;;;;;;9.27;5.72;;;;;;;;;;5039508;28;20045;-81
2023/03/17 05:57:25;;;;;;;9.27;5.68;;;;;;;;;;5040461;28;20073;-82
2023/03/17 05:59:52;;;;;;;15.30;7.47;;;;;;;;;;5039975;28;20081;-80
2023/03/17 06:02:19;;;;;;;10.88;6.15;;;;;;;;;;5039048;28;20064;-81
2023/03/17 06:04:46;;;;;;;11.23;6.22;;;;;;;;;;5038841;28;20048;-80
2023/03/17 06:07:14;;;;;;;10.10;5.72;;;;;;;;;;5039604;28;20129;-82
2023/03/17 06:09:41;;;;;;;11.13;6.05;;;;;;;;;;5038629;28;20045;-81
2023/03/17 06:12:08;;;;;;;13.65;6.38;;;;;;;;;;5037998;28;20068;-81
2023/03/17 06:14:35;;;;;;;10.02;5.88;;;;;;;;;;5038138;28;20065;-81
2023/03/17 06:17:02;;;;;;;8.52;5.20;;;;;;;;;;5037504;28;20073;-80
2023/03/17 06:19:29;;;;;;;9.20;5.60;;;;;;;;;;5036800;28;20045;-81
2023/03/17 06:21:56;;;;;;;8.73;5.03;;;;;;;;;;5036315;28;20069;-80
2023/03/17 06:24:24;;;;;;;12.63;5.50;;;;;;;;;;5037043;28;20045;-81
2023/03/17 06:26:51;;;;;;;8.25;4.63;;;;;;;;;;5036725;28;20056;-81
2023/03/17 06:29:18;;;;;;;13.82;5.55;;;;;;;;;;5038987;28;20052;-80
2023/03/17 06:31:49;;;;;;;9.70;6.45;;;;;;;;;;5048115;28;20463;-80
2023/03/17 06:34:15;;;;;;;9.55;5.03;;;;;;;;;;5049326;28;20061;-79
2023/03/17 06:36:42;;;;;;;9.98;5.60;;;;;;;;;;5048672;28;20052;-80
2023/03/17 06:39:09;;;;;;;9.13;5.55;;;;;;;;;;5048250;28;20049;-80
2023/03/17 06:41:37;;;;;;;10.45;6.03;;;;;;;;;;5046598;28;20068;-80
2023/03/17 06:44:05;;;;;;;11.60;6.10;;;;;;;;;;5043853;28;20170;-79
2023/03/17 06:46:32;;;;;;;10.60;5.75;;;;;;;;;;5048798;28;20049;-80
2023/03/17 06:48:58;;;;;;;10.70;6.00;;;;;;;;;;5039517;28;20580;-79
2023/03/17 06:51:25;;;;;;;10.60;5.38;;;;;;;;;;5039664;28;20133;-79
2023/03/17 06:53:52;;;;;;;12.35;6.90;;;;;;;;;;5040379;28;20511;-78
2023/03/17 06:56:19;;;;;;;10.98;5.75;;;;;;;;;;5038776;28;20041;-78
2023/03/17 06:58:46;;;;;;;12.15;5.93;;;;;;;;;;5039318;28;20045;-79
2023/03/17 07:01:14;;;;;;;8.45;5.38;;;;;;;;;;5040725;28;20053;-79
2023/03/17 07:03:41;;;;;;;11.52;5.30;;;;;;;;;;5039887;28;20523;-79
2023/03/17 07:06:08;;;;;;;8.75;5.10;;;;;;;;;;5036349;28;20468;-79
2023/03/17 07:08:35;;;;;;;13.50;5.18;;;;;;;;;;5036106;28;20053;-80
2023/03/17 07:11:03;;;;;;;10.40;5.10;;;;;;;;;;5035846;28;20105;-80
2023/03/17 07:13:34;;;;;;;10.35;5.80;;;;;;;;;;5037659;28;20109;-79
2023/03/17 07:16:02;;;;;;;;;;;;;;;;;;5036695;28;20068;-80
2023/03/17 07:18:30;;;;;;;11.27;5.05;;;;;;;;;;5031926;28;19925;-80
2023/03/17 07:20:57;;;;;;;7.70;4.95;;;;;;;;;;5034509;28;20512;-80
2023/03/17 07:23:25;;;;;;;10.07;5.30;;;;;;;;;;5034149;28;20484;-80
2023/03/17 07:25:52;;;;;;;8.90;5.22;;;;;;;;;;5034498;28;20508;-80
2023/03/17 07:28:20;;;;;;;10.63;5.38;;;;;;;;;;5034120;28;20500;-80
2023/03/17 07:30:48;;;;;;;13.00;5.05;;;;;;;;;;5034749;28;20076;-80
2023/03/17 07:33:19;;;;;;;10.60;5.68;;;;;;;;;;5033609;28;20085;-79
2023/03/17 07:35:47;;;;;;;9.25;5.47;;;;;;;;;;5033924;28;20042;-79
2023/03/17 07:38:15;;;;;;;9.57;4.93;;;;;;;;;;5037244;28;20076;-80
2023/03/17 07:40:42;;;;;;;8.85;4.88;;;;;;;;;;5039889;28;20072;-80
2023/03/17 07:43:09;;;;;;;10.48;5.22;;;;;;;;;;5038085;28;20045;-79
2023/03/17 07:45:36;;;;;;;10.07;5.85;;;;;;;;;;5035084;28;20088;-79
2023/03/17 07:48:03;;;;;;;9.27;4.93;;;;;;;;;;5035905;28;20512;-78
2023/03/17 07:50:32;;;;;;;9.43;5.00;;;;;;;;;;5035191;28;20048;-79
2023/03/17 07:52:59;;;;;;;8.80;4.85;;;;;;;;;;5036856;28;20045;-80
2023/03/17 07:55:26;;;;;;;12.35;5.30;;;;;;;;;;5039825;28;20049;-79
2023/03/17 07:57:53;;;;;;;8.18;4.80;;;;;;;;;;5039643;28;20105;-79
2023/03/17 08:00:20;;;;;;;10.20;5.05;;;;;;;;;;5055256;28;20050;-80
2023/03/17 08:02:47;;;;;;;9.02;4.70;;;;;;;;;;5042735;28;20625;-80
2023/03/17 08:05:14;;;;;;;10.95;5.28;;;;;;;;;;5035413;28;20080;-79
2023/03/17 08:07:42;;;;;;;10.10;5.32;;;;;;;;;;5018470;28;20120;-78
2023/03/17 08:10:11;;;;;;;10.68;5.30;;;;;;;;;;5025637;28;20408;-78
2023/03/17 08:12:38;;;;;;;9.02;5.43;;;;;;;;;;5038206;28;20406;-79
2023/03/17 08:15:06;;;;;;;11.98;4.97;;;;;;;;;;5038488;28;20136;-79
2023/03/17 08:17:34;;;;;;;8.90;5.43;;;;;;;;;;5038477;28;20053;-79
2023/03/17 08:20:00;;;;;;;9.65;5.53;;;;;;;;;;5038009;28;20069;-79
2023/03/17 08:22:27;;;;;;;9.93;4.72;;;;;;;;;;5038323;28;20049;-80
2023/03/17 08:24:55;;;;;;;10.80;5.95;;;;;;;;;;5037842;28;20416;-79
2023/03/17 08:27:22;;;;;;;9.45;5.40;;;;;;;;;;5037843;28;20084;-79
2023/03/17 08:29:49;;;;;;;8.55;4.95;;;;;;;;;;5038230;28;20080;-79
2023/03/17 08:32:17;;;;;;;8.88;4.85;;;;;;;;;;5038102;28;20049;-79
2023/03/17 08:34:45;;;;;;;9.02;4.65;;;;;;;;;;5037583;28;20041;-79
2023/03/17 08:37:11;;;;;;;9.70;5.32;;;;;;;;;;5038447;28;20157;-80
2023/03/17 08:39:38;;;;;;;10.95;5.53;;;;;;;;;;5038493;28;20457;-78
2023/03/17 08:42:07;;;;;;;10.45;5.70;;;;;;;;;;5036006;28;20057;-79
2023/03/17 08:44:33;;;;;;;11.40;5.30;;;;;;;;;;5032187;28;20164;-78
2023/03/17 08:47:00;;;;;;;9.80;5.53;;;;;;;;;;5039462;28;20064;-78
2023/03/17 08:49:27;;;;;;;10.35;5.20;;;;;;;;;;5043691;28;20045;-78
2023/03/17 08:51:54;;;;;;;13.13;5.35;;;;;;;;;;5045186;28;20049;-86
2023/03/17 08:54:20;;;;;;;11.40;6.07;;;;;;;;;;5045801;28;20049;-84
2023/03/17 08:56:47;;;;;;;10.77;5.05;;;;;;;;;;5045170;28;20052;-83
2023/03/17 08:59:15;;;;;;;9.73;5.28;;;;;;;;;;5041763;28;20068;-83
2023/03/17 09:01:44;;;;;;;9.10;5.28;;;;;;;;;;5040831;28;20065;-82
2023/03/17 09:04:10;;;;;;;7.95;4.75;;;;;;;;;;5042065;28;20419;-77
2023/03/17 09:06:37;;;;;;;9.63;5.07;;;;;;;;;;5032049;28;20084;-79
2023/03/17 09:09:04;;;;;;;10.00;5.68;;;;;;;;;;5025880;28;20050;-79
2023/03/17 09:11:31;;;;;;;9.93;4.70;;;;;;;;;;5039910;28;20508;-79
2023/03/17 09:13:58;;;;;;;9.65;4.85;;;;;;;;;;5037848;28;20056;-78
2023/03/17 09:16:27;;;;;;;8.30;4.90;;;;;;;;;;5036392;28;20053;-79
2023/03/17 09:18:54;;;;;;;18.02;5.10;;;;;;;;;;5036346;28;20050;-80
2023/03/17 09:21:21;;;;;;;9.15;5.15;;;;;;;;;;5036390;28;20049;-80
2023/03/17 09:23:48;;;;;;;12.30;4.72;;;;;;;;;;5036942;28;20124;-78
2023/03/17 09:26:15;;;;;;;9.90;5.03;;;;;;;;;;5033689;28;20037;-79
2023/03/17 09:28:42;;;;;;;10.52;5.03;;;;;;;;;;5034732;28;20057;-78
2023/03/17 09:31:10;;;;;;;10.13;4.32;;;;;;;;;;5033653;28;20527;-80
2023/03/17 09:33:38;;;;;;;14.15;4.80;;;;;;;;;;5034437;28;20088;-79
2023/03/17 09:36:05;;;;;;;7.72;4.43;;;;;;;;;;5033691;28;20068;-78
2023/03/17 09:38:32;;;;;;;9.60;4.40;;;;;;;;;;5035265;28;20073;-78
2023/03/17 09:41:10;;;;;;;16.05;4.75;;;;;;;;;;5034754;28;20105;-79
2023/03/17 09:43:43;;;;;;;8.73;4.88;;;;;;;;;;5034105;28;20045;-78
2023/03/17 09:46:26;;;;;;;7.25;4.78;;;;;;;;;;5034661;28;20111;-79
2023/03/17 09:48:59;;;;;;;14.90;5.43;;;;;;;;;;5035018;28;20132;-78
2023/03/17 09:51:28;;;;;;;8.32;4.25;;;;;;;;;;5035613;28;20045;-77
2023/03/17 09:53:58;;;;;;;7.72;4.30;;;;;;;;;;5037045;28;20105;-79
2023/03/17 09:56:27;;;;;;;8.98;4.93;;;;;;;;;;5038394;28;20478;-78
2023/03/17 09:58:58;;;;;;;8.30;3.88;;;;;;;;;;5027976;28;20077;-78
2023/03/17 10:01:25;;;;;;;10.05;4.10;;;;;;;;;;5031547;28;20125;-79
2023/03/17 10:03:52;;;;;;;8.23;4.75;;;;;;;;;;5032740;28;20129;-82
2023/03/17 10:06:33;;;;;;;8.68;4.22;;;;;;;;;;5034204;28;20045;-81
2023/03/17 10:09:02;;;;;;;;;;;;;;;;;;5034073;28;20045;-79
2023/03/17 10:11:38;;;;;;;8.52;4.20;;;;;;;;;;5034192;28;19929;-79
2023/03/17 10:14:14;;;;;;;7.50;4.57;;;;;;;;;;5021188;28;20144;-80
2023/03/17 10:16:47;;;;;;;6.70;3.85;;;;;;;;;;5033067;28;20045;-79
2023/03/17 10:19:25;;;;;;;9.95;4.53;;;;;;;;;;5033806;28;20103;-80
2023/03/17 10:21:57;;;;;;;7.93;3.63;;;;;;;;;;5030686;28;20076;-80
2023/03/17 10:24:27;;;;;;;8.18;3.67;;;;;;;;;;5013885;28;20050;-81
2023/03/17 10:26:57;;;;;;;7.10;3.65;;;;;;;;;;5018869;28;20049;-80
2023/03/17 10:29:25;;;;;;;6.07;3.20;;;;;;;;;;5032480;28;20045;-79
2023/03/17 10:31:53;;;;;;;6.47;3.58;;;;;;;;;;5013463;28;20416;-79
2023/03/17 10:34:24;;;;;;;8.13;4.45;;;;;;;;;;5014082;28;20045;-79
2023/03/17 10:36:56;;;;;;;15.00;4.05;;;;;;;;;;5018165;28;20037;-79
2023/03/17 10:39:24;;;;;;;7.85;4.25;;;;;;;;;;5033359;28;20480;-80
2023/03/17 10:41:57;;;;;;;9.32;3.85;;;;;;;;;;5033440;28;20637;-79
2023/03/17 10:44:38;;;;;;;7.47;3.78;;;;;;;;;;5032855;28;20635;-80
2023/03/17 10:47:05;;;;;;;7.35;3.40;;;;;;;;;;5034108;28;20041;-79
2023/03/17 10:49:36;;;;;;;5.60;3.10;;;;;;;;;;5040317;28;20077;-80
2023/03/17 10:52:08;;;;;;;6.05;3.00;;;;;;;;;;5053246;28;20541;-81
2023/03/17 10:54:36;;;;;;;9.35;3.65;;;;;;;;;;5045293;28;20057;-79
2023/03/17 10:57:07;;;;;;;8.07;3.65;;;;;;;;;;5039043;28;20049;-79
2023/03/17 10:59:38;;;;;;;;;;;;;;;;;;5034172;28;20128;-80
2023/03/17 11:02:15;;;;;;;7.65;4.10;;;;;;;;;;5032819;28;19984;-80
2023/03/17 11:04:42;;;;;;;9.68;5.20;;;;;;;;;;5032719;28;20073;-80
2023/03/17 11:07:17;;;;;;;7.65;3.55;;;;;;;;;;5032624;28;20053;-79
2023/03/17 11:09:48;;;;;;;5.85;3.03;;;;;;;;;;5026403;28;20125;-79
2023/03/17 11:12:25;;;;;;;8.93;3.72;;;;;;;;;;5032516;28;20053;-80
2023/03/17 11:14:58;;;;;;;6.53;3.80;;;;;;;;;;5031995;28;20072;-79
2023/03/17 11:17:46;;;;;;;14.63;4.88;;;;;;;;;;5017614;28;20076;-80
2023/03/17 11:20:42;;;;;;;9.52;3.78;;;;;;;;;;5030477;28;20041;-79
2023/03/17 11:23:28;;;;;;;6.55;3.67;;;;;;;;;;5030303;28;20107;-80
2023/03/17 11:26:05;;;;;;;8.27;3.78;;;;;;;;;;4996909;28;20141;-80
2023/03/17 11:28:37;;;;;;;8.43;3.92;;;;;;;;;;5013828;28;20701;-80
2023/03/17 11:31:11;;;;;;;6.95;3.40;;;;;;;;;;5024068;28;20073;-80
2023/03/17 11:33:45;;;;;;;7.60;3.50;;;;;;;;;;5034921;28;20412;-80
2023/03/17 11:36:23;;;;;;;6.07;3.35;;;;;;;;;;5034227;28;20049;-80
2023/03/17 11:38:59;;;;;;;8.68;3.67;;;;;;;;;;5032590;28;20046;-79
2023/03/17 11:41:35;;;;;;;6.55;4.28;;;;;;;;;;5031740;28;20077;-80
2023/03/17 11:44:15;;;;;;;8.80;3.90;;;;;;;;;;5036791;28;20041;-79
2023/03/17 11:46:46;;;;;;;6.55;3.78;;;;;;;;;;5044032;28;20054;-80
2023/03/17 11:49:19;;;;;;;6.95;3.70;;;;;;;;;;5037572;28;20539;-80
2023/03/17 11:51:58;;;;;;;6.22;3.25;;;;;;;;;;5039298;28;20050;-82
2023/03/17 11:54:36;;;;;;;5.20;3.58;;;;;;;;;;5040142;28;20056;-85
2023/03/17 11:57:06;;;;;;;7.43;3.67;;;;;;;;;;5037515;28;20160;-80
2023/03/17 11:59:37;;;;;;;5.57;2.95;;;;;;;;;;5039807;28;20041;-80
2023/03/17 12:02:19;;;;;;;6.25;3.22;;;;;;;;;;5039553;28;20137;-80
2023/03/17 12:04:53;;;;;;;6.70;3.15;;;;;;;;;;5038904;28;20488;-80
2023/03/17 12:07:23;;;;;;;6.00;3.40;;;;;;;;;;5038889;28;20056;-80
2023/03/17 12:10:00;;;;;;;6.57;3.28;;;;;;;;;;5039294;28;20157;-80
2023/03/17 12:12:33;;;;;;;6.60;4.20;;;;;;;;;;5030161;28;20077;-80
2023/03/17 12:15:04;;;;;;;5.90;3.47;;;;;;;;;;5015644;28;20050;-79
2023/03/17 12:17:36;;;;;;;7.32;3.67;;;;;;;;;;5014880;28;20100;-79
2023/03/17 12:20:15;;;;;;;7.55;3.97;;;;;;;;;;5016157;28;20041;-79
2023/03/17 12:22:46;;;;;;;7.50;3.30;;;;;;;;;;5034445;28;20464;-80
2023/03/17 12:25:20;;;;;;;7.78;3.72;;;;;;;;;;5036490;28;20038;-80
2023/03/17 12:27:54;;;;;;;8.50;3.28;;;;;;;;;;5036278;28;20109;-80
2023/03/17 12:30:27;;;;;;;7.22;3.45;;;;;;;;;;5036486;28;20457;-83
2023/03/17 12:33:02;;;;;;;6.50;3.33;;;;;;;;;;5035264;28;20053;-82
2023/03/17 12:35:32;;;;;;;6.60;3.53;;;;;;;;;;5034579;28;20112;-78
2023/03/17 12:38:01;;;;;;;9.43;4.07;;;;;;;;;;5037280;28;20084;-77
2023/03/17 12:40:34;;;;;;;9.75;3.80;;;;;;;;;;5042259;28;20107;-79
2023/03/17 12:43:23;;;;;;;23.35;8.18;;;;;;;;;;5039553;28;20041;-81
2023/03/17 12:46:08;;;;;;;42.65;18.45;;;;;;;;;;5025012;28;20118;-80
2023/03/17 12:49:00;;;;;;;24.15;10.65;;;;;;;;;;5039787;28;20077;-81
2023/03/17 12:51:40;;;;;;;16.15;7.18;;;;;;;;;;5005705;28;20416;-80
2023/03/17 12:54:14;;;;;;;20.80;6.00;;;;;;;;;;5039960;28;20109;-80
2023/03/17 12:56:47;;;;;;;10.80;5.03;;;;;;;;;;5039435;28;20487;-80
2023/03/17 12:59:18;;;;;;;10.57;5.07;;;;;;;;;;5037334;28;20088;-81
2023/03/17 13:01:54;;;;;;;7.72;4.30;;;;;;;;;;5020484;28;20078;-81
2023/03/17 13:04:24;;;;;;;10.50;4.25;;;;;;;;;;5032057;28;20555;-80
2023/03/17 13:06:58;;;;;;;7.47;4.33;;;;;;;;;;5030168;28;20136;-81
2023/03/17 13:09:44;;;;;;;8.52;4.50;;;;;;;;;;5033452;28;20104;-81
2023/03/17 13:12:54;;;;;;;9.10;5.30;;;;;;;;;;5039860;28;20092;-81
2023/03/17 13:15:33;;;;;;;7.93;4.82;;;;;;;;;;5020737;28;20078;-80
2023/03/17 13:18:23;;;;;;;11.05;5.40;;;;;;;;;;5019838;28;20092;-80
2023/03/17 13:21:07;;;;;;;11.00;5.72;;;;;;;;;;5028359;28;20050;-79
2023/03/17 13:23:37;;;;;;;8.98;5.40;;;;;;;;;;5038910;28;20495;-81
2023/03/17 13:26:04;;;;;;;9.73;5.50;;;;;;;;;;5039326;28;20045;-81
2023/03/17 13:28:42;;;;;;;8.63;5.20;;;;;;;;;;5038936;28;20076;-80
2023/03/17 13:31:15;;;;;;;15.35;6.22;;;;;;;;;;5040382;28;20081;-81
2023/03/17 13:33:44;;;;;;;10.30;5.53;;;;;;;;;;5040105;28;20143;-81
2023/03/17 13:36:27;;;;;;;9.67;6.30;;;;;;;;;;5039775;28;20060;-81
2023/03/17 13:39:22;;;;;;;7.70;4.95;;;;;;;;;;5020631;28;20046;-81
2023/03/17 13:42:17;;;;;;;8.57;4.82;;;;;;;;;;5030405;28;20058;-81
2023/03/17 13:45:04;;;;;;;7.03;4.85;;;;;;;;;;5048646;28;20463;-80
2023/03/17 13:47:36;;;;;;;8.90;5.25;;;;;;;;;;5043678;28;20041;-81
2023/03/17 13:50:08;;;;;;;8.10;5.18;;;;;;;;;;5042641;28;20057;-80
2023/03/17 13:52:40;;;;;;;8.65;5.18;;;;;;;;;;5042045;28;20045;-81
2023/03/17 13:55:43;;;;;;;7.78;5.00;;;;;;;;;;5040840;28;20046;-81
2023/03/17 13:58:34;;;;;;;7.50;4.75;;;;;;;;;;5035393;28;20076;-81
2023/03/17 14:01:06;;;;;;;8.00;5.15;;;;;;;;;;5016622;28;20149;-80
2023/03/17 14:03:41;;;;;;;9.55;5.75;;;;;;;;;;5038788;28;20107;-81
2023/03/17 14:06:12;;;;;;;10.05;6.43;;;;;;;;;;5039115;28;20133;-83
2023/03/17 14:08:47;;;;;;;9.00;5.85;;;;;;;;;;5036614;28;20065;-81
2023/03/17 14:11:22;;;;;;;7.25;4.82;;;;;;;;;;5047334;28;20064;-81
2023/03/17 14:13:56;;;;;;;8.65;5.43;;;;;;;;;;5045681;28;20049;-82
2023/03/17 14:16:27;;;;;;;7.32;5.07;;;;;;;;;;5041760;28;20049;-81
2023/03/17 14:18:59;;;;;;;8.93;5.15;;;;;;;;;;5041406;28;20073;-81
2023/03/17 14:21:31;;;;;;;8.45;5.07;;;;;;;;;;5037967;28;20057;-81
2023/03/17 14:24:00;;;;;;;7.75;5.07;;;;;;;;;;5035773;28;20041;-79
2023/03/17 14:26:29;;;;;;;8.55;4.95;;;;;;;;;;5036015;28;20049;-81
2023/03/17 14:28:59;;;;;;;9.48;5.43;;;;;;;;;;5036746;28;20041;-81
2023/03/17 14:31:28;;;;;;;8.63;5.22;;;;;;;;;;5035008;28;20060;-84
2023/03/17 14:33:57;;;;;;;9.85;5.28;;;;;;;;;;5039385;28;20105;-80
2023/03/17 14:36:25;;;;;;;9.38;5.40;;;;;;;;;;5041966;28;20065;-81
2023/03/17 14:38:54;;;;;;;8.52;4.72;;;;;;;;;;5034236;28;20501;-81
2023/03/17 14:41:22;;;;;;;9.18;5.78;;;;;;;;;;5039992;28;20080;-80
2023/03/17 14:43:50;;;;;;;8.25;5.30;;;;;;;;;;5039512;28;20487;-81
2023/03/17 14:46:22;;;;;;;11.15;6.03;;;;;;;;;;5040063;28;20213;-81
2023/03/17 14:48:50;;;;;;;7.07;5.10;;;;;;;;;;5039877;28;20123;-81
2023/03/17 14:51:26;;;;;;;10.07;5.05;;;;;;;;;;5041021;28;20101;-80
2023/03/17 14:53:54;;;;;;;10.05;5.35;;;;;;;;;;5040997;28;20289;-80
2023/03/17 14:56:25;;;;;;;7.82;5.68;;;;;;;;;;5048038;28;20033;-80